createdAt,value
2019-02-04T00:00:08.422Z,96.14
2019-02-04T00:01:08.415Z,96.25
2019-02-04T00:02:08.423Z,96.61
2019-02-04T00:03:08.398Z,95.83
2019-02-04T00:04:08.402Z,96.04
2019-02-04T00:05:08.529Z,96.04
2019-02-04T00:06:08.387Z,95.83
2019-02-04T00:07:08.351Z,95.83
2019-02-04T00:08:08.347Z,95.83
2019-02-04T00:09:08.356Z,96.29
2019-02-04T00:10:08.322Z,95.87
2019-02-04T00:11:08.345Z,96.08
2019-02-04T00:12:08.412Z,95.83
2019-02-04T00:13:08.306Z,95.87
2019-02-04T00:14:08.277Z,96.08
2019-02-04T00:15:08.267Z,95.87
2019-02-04T00:16:08.265Z,96.29
2019-02-04T00:17:08.304Z,95.66
2019-02-04T00:18:08.237Z,95.50
2019-02-04T00:19:08.228Z,95.76
2019-02-04T00:20:08.301Z,96.23
2019-02-04T00:21:08.215Z,96.02
2019-02-04T00:22:08.190Z,96.65
2019-02-04T00:23:08.258Z,96.44
2019-02-04T00:24:08.172Z,96.12
2019-02-04T00:25:08.169Z,96.02
2019-02-04T00:26:08.150Z,96.23
2019-02-04T00:27:08.140Z,96.44
2019-02-04T00:28:08.205Z,96.65
2019-02-04T00:29:08.163Z,96.02
2019-02-04T00:30:08.106Z,96.23
2019-02-04T00:31:08.098Z,96.33
2019-02-04T00:32:08.092Z,96.44
2019-02-04T00:33:08.075Z,96.23
2019-02-04T00:34:08.063Z,96.12
2019-02-04T00:35:08.121Z,96.44
2019-02-04T00:36:08.054Z,96.23
2019-02-04T00:37:08.045Z,96.12
2019-02-04T00:38:08.025Z,96.86
2019-02-04T00:39:08.012Z,96.75
2019-02-04T00:40:08.007Z,96.65
2019-02-04T00:41:08.029Z,96.86
2019-02-04T00:42:07.985Z,96.75
2019-02-04T00:43:08.004Z,96.65
2019-02-04T00:44:07.961Z,96.55
2019-02-04T00:45:07.945Z,95.92
2019-02-04T00:46:07.938Z,96.37
2019-02-04T00:47:08.028Z,96.65
2019-02-04T00:48:07.915Z,96.86
2019-02-04T00:49:07.906Z,96.55
2019-02-04T00:50:07.899Z,96.86
2019-02-04T00:51:07.921Z,96.65
2019-02-04T00:52:07.875Z,96.23
2019-02-04T00:53:08.051Z,96.75
2019-02-04T00:54:07.850Z,96.23
2019-02-04T00:55:07.843Z,96.39
2019-02-04T00:56:07.835Z,96.55
2019-02-04T00:57:07.854Z,95.81
2019-02-04T00:58:07.810Z,95.98
2019-02-04T00:59:07.839Z,95.76
2019-02-04T01:00:07.793Z,95.35
2019-02-04T01:01:07.782Z,95.76
2019-02-04T01:02:07.776Z,95.14
2019-02-04T01:03:07.788Z,95.25
2019-02-04T01:04:07.749Z,94.93
2019-02-04T01:05:07.784Z,94.72
2019-02-04T01:06:07.724Z,94.72
2019-02-04T01:07:07.722Z,94.62
2019-02-04T01:08:07.709Z,94.93
2019-02-04T01:09:07.779Z,94.72
2019-02-04T01:10:07.684Z,94.82
2019-02-04T01:11:07.706Z,94.87
2019-02-04T01:12:07.671Z,94.72
2019-02-04T01:13:07.679Z,94.40
2019-02-04T01:14:07.633Z,94.62
2019-02-04T01:15:07.691Z,94.97
2019-02-04T01:16:07.621Z,94.82
2019-02-04T01:17:07.787Z,94.97
2019-02-04T01:18:07.616Z,94.87
2019-02-04T01:19:07.585Z,94.87
2019-02-04T01:20:07.577Z,95.07
2019-02-04T01:21:07.572Z,94.82
2019-02-04T01:22:07.554Z,94.87
2019-02-04T01:23:07.594Z,94.93
2019-02-04T01:24:07.547Z,94.87
2019-02-04T01:25:07.535Z,94.97
2019-02-04T01:26:07.512Z,94.97
2019-02-04T01:27:07.547Z,94.97
2019-02-04T01:28:07.490Z,95.29
2019-02-04T01:29:07.522Z,95.29
2019-02-04T01:30:07.472Z,95.50
2019-02-04T01:31:07.526Z,95.29
2019-02-04T01:32:07.459Z,94.97
2019-02-04T01:33:07.450Z,94.97
2019-02-04T01:34:07.429Z,94.82
2019-02-04T01:35:07.462Z,95.25
2019-02-04T01:36:07.407Z,94.97
2019-02-04T01:37:07.406Z,94.45
2019-02-04T01:38:07.469Z,94.34
2019-02-04T01:39:07.376Z,94.87
2019-02-04T01:40:07.366Z,94.56
2019-02-04T01:41:07.396Z,94.60
2019-02-04T01:42:07.365Z,94.76
2019-02-04T01:43:07.333Z,94.70
2019-02-04T01:44:07.404Z,95.01
2019-02-04T01:45:07.310Z,95.12
2019-02-04T01:46:07.313Z,95.96
2019-02-04T01:47:14.404Z,96.06
2019-02-04T01:48:08.283Z,95.96
2019-02-04T01:49:07.394Z,96.06
2019-02-04T01:50:07.259Z,96.06
2019-02-04T01:51:07.318Z,96.06
2019-02-04T01:52:07.256Z,96.06
2019-02-04T01:53:07.258Z,96.69
2019-02-04T01:54:07.216Z,96.59
2019-02-04T01:55:07.223Z,96.37
2019-02-04T01:56:07.199Z,96.90
2019-02-04T01:57:07.187Z,96.90
2019-02-04T01:58:07.190Z,96.86
2019-02-04T01:59:07.214Z,96.65
2019-02-04T02:00:07.186Z,96.23
2019-02-04T02:01:07.146Z,96.44
2019-02-04T02:02:07.138Z,95.87
2019-02-04T02:03:07.128Z,96.08
2019-02-04T02:04:07.156Z,95.50
2019-02-04T02:05:07.139Z,95.50
2019-02-04T02:06:07.165Z,95.29
2019-02-04T02:07:07.087Z,95.29
2019-02-04T02:08:07.079Z,94.87
2019-02-04T02:09:07.075Z,94.76
2019-02-04T02:10:07.097Z,94.87
2019-02-04T02:11:07.254Z,94.97
2019-02-04T02:12:07.068Z,94.97
2019-02-04T02:13:07.079Z,95.50
2019-02-04T02:14:07.004Z,95.70
2019-02-04T02:15:06.994Z,95.39
2019-02-04T02:16:07.002Z,95.81
2019-02-04T02:17:07.019Z,95.92
2019-02-04T02:18:06.972Z,95.50
2019-02-04T02:19:06.990Z,95.60
2019-02-04T02:20:06.949Z,95.50
2019-02-04T02:21:06.935Z,95.18
2019-02-04T02:22:06.928Z,95.18
2019-02-04T02:23:06.956Z,94.97
2019-02-04T02:24:06.900Z,95.07
2019-02-04T02:25:06.910Z,95.18
2019-02-04T02:26:06.889Z,95.54
2019-02-04T02:27:06.877Z,95.75
2019-02-04T02:28:06.874Z,95.50
2019-02-04T02:29:07.060Z,95.50
2019-02-04T02:30:06.849Z,95.18
2019-02-04T02:31:06.825Z,94.97
2019-02-04T02:32:06.824Z,94.91
2019-02-04T02:33:06.806Z,94.97
2019-02-04T02:34:06.797Z,94.97
2019-02-04T02:35:06.815Z,94.91
2019-02-04T02:36:06.812Z,95.01
2019-02-04T02:37:06.757Z,95.12
2019-02-04T02:38:06.753Z,95.43
2019-02-04T02:39:06.743Z,95.54
2019-02-04T02:40:06.740Z,95.33
2019-02-04T02:41:06.754Z,96.21
2019-02-04T02:42:06.766Z,96.21
2019-02-04T02:43:06.699Z,96.11
2019-02-04T02:44:06.697Z,95.94
2019-02-04T02:45:06.677Z,96.25
2019-02-04T02:46:06.679Z,96.15
2019-02-04T02:47:06.712Z,96.15
2019-02-04T02:48:06.685Z,96.25
2019-02-04T02:49:06.635Z,96.25
2019-02-04T02:50:06.628Z,96.04
2019-02-04T02:51:06.618Z,96.19
2019-02-04T02:52:06.607Z,96.61
2019-02-04T02:53:06.630Z,96.51
2019-02-04T02:54:06.583Z,95.98
2019-02-04T02:55:06.596Z,96.30
2019-02-04T02:56:06.560Z,96.09
2019-02-04T02:57:06.550Z,95.92
2019-02-04T02:58:06.548Z,96.87
2019-02-04T02:59:06.570Z,96.55
2019-02-04T03:00:06.516Z,97.08
2019-02-04T03:01:06.533Z,96.87
2019-02-04T03:02:06.500Z,96.87
2019-02-04T03:03:06.494Z,97.02
2019-02-04T03:04:06.475Z,97.12
2019-02-04T03:05:06.513Z,97.23
2019-02-04T03:06:06.461Z,97.33
2019-02-04T03:07:06.450Z,97.86
2019-02-04T03:08:06.460Z,97.75
2019-02-04T03:09:06.424Z,97.81
2019-02-04T03:10:06.411Z,98.13
2019-02-04T03:11:06.452Z,98.23
2019-02-04T03:12:06.392Z,98.23
2019-02-04T03:13:06.394Z,98.23
2019-02-04T03:14:06.424Z,97.92
2019-02-04T03:15:06.371Z,97.60
2019-02-04T03:16:06.348Z,98.44
2019-02-04T03:17:06.380Z,98.23
2019-02-04T03:18:06.330Z,98.39
2019-02-04T03:19:06.369Z,98.50
2019-02-04T03:20:06.317Z,98.29
2019-02-04T03:21:06.315Z,98.35
2019-02-04T03:22:06.290Z,97.83
2019-02-04T03:23:06.340Z,98.04
2019-02-04T03:24:06.266Z,97.30
2019-02-04T03:25:06.260Z,97.58
2019-02-04T03:26:06.288Z,97.26
2019-02-04T03:27:06.235Z,96.63
2019-02-04T03:28:06.226Z,96.53
2019-02-04T03:29:06.255Z,95.90
2019-02-04T03:30:06.228Z,95.96
2019-02-04T03:31:06.212Z,95.54
2019-02-04T03:32:06.200Z,95.23
2019-02-04T03:33:06.209Z,94.60
2019-02-04T03:34:06.167Z,94.49
2019-02-04T03:35:06.188Z,93.76
2019-02-04T03:36:06.161Z,94.07
2019-02-04T03:37:06.128Z,94.03
2019-02-04T03:38:06.116Z,93.51
2019-02-04T03:39:06.128Z,93.19
2019-02-04T03:40:06.104Z,93.30
2019-02-04T03:41:06.129Z,92.98
2019-02-04T03:42:06.089Z,92.98
2019-02-04T03:43:06.075Z,92.98
2019-02-04T03:44:06.058Z,93.93
2019-02-04T03:45:06.054Z,93.65
2019-02-04T03:46:06.053Z,93.30
2019-02-04T03:47:06.076Z,93.19
2019-02-04T03:48:08.122Z,93.44
2019-02-04T03:49:05.998Z,93.76
2019-02-04T03:50:05.994Z,93.44
2019-02-04T03:51:05.992Z,93.44
2019-02-04T03:52:05.978Z,93.13
2019-02-04T03:53:06.079Z,93.34
2019-02-04T03:54:05.951Z,93.34
2019-02-04T03:55:05.941Z,93.55
2019-02-04T03:56:05.956Z,93.61
2019-02-04T03:57:05.917Z,93.24
2019-02-04T03:58:05.914Z,93.30
2019-02-04T03:59:05.961Z,92.98
2019-02-04T04:00:05.903Z,92.67
2019-02-04T04:01:05.884Z,92.67
2019-02-04T04:02:05.918Z,92.46
2019-02-04T04:03:05.872Z,92.77
2019-02-04T04:04:05.848Z,92.98
2019-02-04T04:05:05.937Z,92.35
2019-02-04T04:06:05.824Z,92.57
2019-02-04T04:07:05.814Z,92.67
2019-02-04T04:08:05.806Z,92.46
2019-02-04T04:09:05.807Z,92.67
2019-02-04T04:10:05.884Z,92.67
2019-02-04T04:11:05.830Z,92.82
2019-02-04T04:12:05.765Z,92.61
2019-02-04T04:13:05.760Z,92.50
2019-02-04T04:14:05.741Z,93.34
2019-02-04T04:15:05.739Z,93.65
2019-02-04T04:16:05.793Z,93.34
2019-02-04T04:17:05.771Z,93.24
2019-02-04T04:18:15.650Z,93.24
2019-02-04T04:19:06.693Z,93.44
2019-02-04T04:20:05.675Z,93.55
2019-02-04T04:21:05.668Z,93.34
2019-02-04T04:22:05.652Z,93.44
2019-02-04T04:23:05.697Z,93.34
2019-02-04T04:24:05.663Z,93.34
2019-02-04T04:25:05.636Z,93.49
2019-02-04T04:26:05.620Z,93.59
2019-02-04T04:27:05.599Z,93.17
2019-02-04T04:28:05.593Z,93.80
2019-02-04T04:29:05.663Z,93.91
2019-02-04T04:30:05.586Z,93.91
2019-02-04T04:31:05.578Z,94.06
2019-02-04T04:32:05.553Z,94.16
2019-02-04T04:33:05.562Z,94.16
2019-02-04T04:34:05.528Z,94.16
2019-02-04T04:35:05.554Z,94.10
2019-02-04T04:36:05.512Z,94.31
2019-02-04T04:37:05.503Z,94.62
2019-02-04T04:38:05.487Z,94.73
2019-02-04T04:39:05.546Z,94.73
2019-02-04T04:40:05.468Z,95.15
2019-02-04T04:41:05.502Z,95.15
2019-02-04T04:42:05.447Z,95.36
2019-02-04T04:43:05.432Z,95.25
2019-02-04T04:44:05.444Z,95.15
2019-02-04T04:45:05.422Z,95.19
2019-02-04T04:46:05.405Z,95.50
2019-02-04T04:47:05.438Z,94.98
2019-02-04T04:48:05.401Z,95.40
2019-02-04T04:49:05.378Z,95.50
2019-02-04T04:50:05.358Z,95.50
2019-02-04T04:51:05.344Z,94.98
2019-02-04T04:52:05.338Z,95.54
2019-02-04T04:53:05.511Z,95.50
2019-02-04T04:54:05.343Z,95.50
2019-02-04T04:55:05.304Z,96.13
2019-02-04T04:56:05.292Z,95.86
2019-02-04T04:57:05.280Z,95.44
2019-02-04T04:58:05.270Z,95.72
2019-02-04T04:59:05.299Z,96.18
2019-02-04T05:00:05.289Z,96.18
2019-02-04T05:01:05.241Z,96.07
2019-02-04T05:02:05.227Z,96.91
2019-02-04T05:03:05.222Z,96.66
2019-02-04T05:04:05.207Z,96.13
2019-02-04T05:05:05.243Z,96.45
2019-02-04T05:06:05.198Z,96.24
2019-02-04T05:07:05.181Z,96.19
2019-02-04T05:08:05.198Z,96.41
2019-02-04T05:09:05.162Z,96.61
2019-02-04T05:10:05.149Z,96.19
2019-02-04T05:11:05.192Z,95.94
2019-02-04T05:12:05.143Z,95.62
2019-02-04T05:13:05.128Z,95.10
2019-02-04T05:14:05.107Z,95.00
2019-02-04T05:15:05.091Z,94.79
2019-02-04T05:16:05.081Z,95.00
2019-02-04T05:17:05.110Z,94.89
2019-02-04T05:18:05.085Z,94.89
2019-02-04T05:19:05.084Z,94.89
2019-02-04T05:20:05.103Z,94.89
2019-02-04T05:21:05.061Z,94.89
2019-02-04T05:22:05.026Z,95.00
2019-02-04T05:23:05.052Z,95.00
2019-02-04T05:24:05.012Z,94.47
2019-02-04T05:25:04.995Z,94.89
2019-02-04T05:26:04.990Z,95.00
2019-02-04T05:27:04.986Z,94.95
2019-02-04T05:28:04.953Z,94.64
2019-02-04T05:29:05.000Z,94.32
2019-02-04T05:30:04.949Z,93.91
2019-02-04T05:31:04.926Z,93.38
2019-02-04T05:32:04.943Z,93.59
2019-02-04T05:33:04.909Z,93.70
2019-02-04T05:34:04.891Z,93.38
2019-02-04T05:35:04.947Z,93.32
2019-02-04T05:36:04.869Z,93.27
2019-02-04T05:37:04.865Z,93.63
2019-02-04T05:38:04.856Z,93.43
2019-02-04T05:39:04.872Z,93.74
2019-02-04T05:40:04.830Z,93.53
2019-02-04T05:41:04.855Z,94.16
2019-02-04T05:42:04.810Z,93.84
2019-02-04T05:43:04.798Z,94.22
2019-02-04T05:44:04.785Z,94.37
2019-02-04T05:45:04.797Z,93.84
2019-02-04T05:46:04.778Z,94.32
2019-02-04T05:47:04.802Z,94.32
2019-02-04T05:48:04.748Z,94.12
2019-02-04T05:49:04.740Z,94.12
2019-02-04T05:50:04.733Z,93.74
2019-02-04T05:51:04.743Z,93.32
2019-02-04T05:52:04.709Z,93.70
2019-02-04T05:53:04.725Z,93.84
2019-02-04T05:54:04.690Z,94.06
2019-02-04T05:55:04.674Z,93.95
2019-02-04T05:56:04.692Z,94.16
2019-02-04T05:57:04.687Z,93.63
2019-02-04T05:58:04.641Z,93.74
2019-02-04T05:59:04.666Z,93.21
2019-02-04T06:00:04.620Z,93.84
2019-02-04T06:01:04.619Z,93.88
2019-02-04T06:02:04.601Z,93.88
2019-02-04T06:03:04.613Z,93.36
2019-02-04T06:04:04.586Z,93.68
2019-02-04T06:05:04.609Z,93.82
2019-02-04T06:06:04.555Z,93.93
2019-02-04T06:07:04.564Z,94.35
2019-02-04T06:08:04.660Z,94.04
2019-02-04T06:09:04.544Z,94.29
2019-02-04T06:10:04.513Z,93.93
2019-02-04T06:11:04.555Z,94.35
2019-02-04T06:12:04.494Z,94.45
2019-02-04T06:13:04.491Z,94.71
2019-02-04T06:14:04.474Z,94.92
2019-02-04T06:15:04.480Z,95.13
2019-02-04T06:16:04.451Z,94.92
2019-02-04T06:17:04.493Z,95.23
2019-02-04T06:18:04.428Z,94.85
2019-02-04T06:19:04.419Z,96.22
2019-02-04T06:20:04.406Z,96.64
2019-02-04T06:21:04.412Z,96.39
2019-02-04T06:22:04.388Z,96.91
2019-02-04T06:23:04.422Z,96.81
2019-02-04T06:24:04.397Z,96.39
2019-02-04T06:25:04.358Z,96.49
2019-02-04T06:26:04.344Z,96.70
2019-02-04T06:27:04.364Z,96.59
2019-02-04T06:28:04.347Z,96.49
2019-02-04T06:29:04.469Z,96.49
2019-02-04T06:30:04.305Z,96.59
2019-02-04T06:31:04.297Z,96.81
2019-02-04T06:32:04.315Z,97.23
2019-02-04T06:33:04.268Z,97.02
2019-02-04T06:34:04.265Z,96.59
2019-02-04T06:35:04.310Z,96.91
2019-02-04T06:36:04.240Z,96.70
2019-02-04T06:37:04.234Z,96.77
2019-02-04T06:38:04.258Z,96.39
2019-02-04T06:39:04.207Z,96.59
2019-02-04T06:40:04.199Z,96.81
2019-02-04T06:41:04.218Z,96.77
2019-02-04T06:42:04.249Z,96.91
2019-02-04T06:43:04.169Z,96.18
2019-02-04T06:44:04.177Z,96.39
2019-02-04T06:45:04.164Z,96.07
2019-02-04T06:46:04.182Z,96.18
2019-02-04T06:47:04.157Z,96.03
2019-02-04T06:48:04.392Z,96.34
2019-02-04T06:49:12.005Z,96.45
2019-02-04T06:50:05.088Z,96.87
2019-02-04T06:51:04.085Z,96.77
2019-02-04T06:52:04.082Z,96.55
2019-02-04T06:53:04.095Z,96.55
2019-02-04T06:54:04.057Z,96.66
2019-02-04T06:55:04.058Z,96.66
2019-02-04T06:56:04.026Z,96.97
2019-02-04T06:57:04.149Z,96.66
2019-02-04T06:58:04.007Z,96.45
2019-02-04T06:59:04.023Z,96.45
2019-02-04T07:00:04.054Z,96.45
2019-02-04T07:01:03.977Z,96.66
2019-02-04T07:02:03.969Z,97.08
2019-02-04T07:03:03.980Z,96.03
2019-02-04T07:04:03.949Z,96.03
2019-02-04T07:05:03.967Z,96.55
2019-02-04T07:06:03.926Z,95.61
2019-02-04T07:07:03.913Z,95.72
2019-02-04T07:08:03.898Z,95.44
2019-02-04T07:09:03.894Z,95.86
2019-02-04T07:10:03.878Z,95.86
2019-02-04T07:11:03.923Z,96.28
2019-02-04T07:12:03.860Z,96.18
2019-02-04T07:13:03.867Z,96.28
2019-02-04T07:14:03.838Z,96.87
2019-02-04T07:15:03.831Z,96.91
2019-02-04T07:16:03.818Z,96.34
2019-02-04T07:17:03.833Z,96.55
2019-02-04T07:18:03.795Z,96.34
2019-02-04T07:19:03.896Z,96.87
2019-02-04T07:20:03.778Z,96.87
2019-02-04T07:21:03.776Z,96.97
2019-02-04T07:22:03.755Z,96.87
2019-02-04T07:23:03.805Z,97.92
2019-02-04T07:24:03.731Z,97.50
2019-02-04T07:25:03.739Z,97.66
2019-02-04T07:26:03.716Z,97.45
2019-02-04T07:27:03.709Z,97.35
2019-02-04T07:28:03.699Z,97.35
2019-02-04T07:29:03.725Z,97.56
2019-02-04T07:30:03.672Z,97.35
2019-02-04T07:31:03.661Z,97.77
2019-02-04T07:32:03.667Z,97.83
2019-02-04T07:33:03.637Z,96.99
2019-02-04T07:34:03.630Z,96.78
2019-02-04T07:35:03.652Z,96.15
2019-02-04T07:36:03.717Z,96.67
2019-02-04T07:37:03.597Z,96.57
2019-02-04T07:38:03.598Z,96.67
2019-02-04T07:39:03.573Z,96.25
2019-02-04T07:40:04.253Z,96.11
2019-02-04T07:41:04.635Z,95.90
2019-02-04T07:42:03.656Z,96.00
2019-02-04T07:43:03.786Z,96.17
2019-02-04T07:44:03.658Z,95.68
2019-02-04T07:45:03.508Z,94.64
2019-02-04T07:46:03.501Z,94.95
2019-02-04T07:47:03.540Z,94.95
2019-02-04T07:48:03.513Z,94.95
2019-02-04T07:49:03.470Z,94.81
2019-02-04T07:50:03.456Z,95.06
2019-02-04T07:51:03.487Z,94.81
2019-02-04T07:52:03.554Z,94.81
2019-02-04T07:53:03.544Z,94.38
2019-02-04T07:54:03.417Z,94.38
2019-02-04T07:55:03.403Z,94.28
2019-02-04T07:56:03.407Z,94.49
2019-02-04T07:57:03.394Z,94.70
2019-02-04T07:58:03.373Z,94.38
2019-02-04T07:59:03.404Z,94.28
2019-02-04T08:00:03.349Z,94.49
2019-02-04T08:01:03.347Z,94.49
2019-02-04T08:02:03.332Z,93.97
2019-02-04T08:03:03.334Z,94.07
2019-02-04T08:04:03.319Z,94.13
2019-02-04T08:05:03.336Z,94.03
2019-02-04T08:06:03.287Z,93.82
2019-02-04T08:07:03.276Z,93.19
2019-02-04T08:08:03.270Z,93.67
2019-02-04T08:09:03.257Z,93.46
2019-02-04T08:10:03.259Z,93.32
2019-02-04T08:11:03.266Z,92.58
2019-02-04T08:12:03.229Z,91.91
2019-02-04T08:13:03.260Z,91.08
2019-02-04T08:14:03.207Z,91.14
2019-02-04T08:15:03.191Z,90.20
2019-02-04T08:16:03.209Z,89.78
2019-02-04T08:17:03.204Z,89.47
2019-02-04T08:18:03.166Z,89.68
2019-02-04T08:19:03.159Z,88.49
2019-02-04T08:20:03.140Z,88.49
2019-02-04T08:21:03.127Z,88.39
2019-02-04T08:22:03.139Z,88.07
2019-02-04T08:23:03.229Z,88.13
2019-02-04T08:24:03.102Z,88.28
2019-02-04T08:25:03.092Z,87.93
2019-02-04T08:26:03.074Z,88.13
2019-02-04T08:27:03.065Z,87.88
2019-02-04T08:28:03.072Z,87.05
2019-02-04T08:29:03.072Z,86.84
2019-02-04T08:30:03.037Z,86.53
2019-02-04T08:31:03.020Z,86.00
2019-02-04T08:32:03.015Z,85.76
2019-02-04T08:33:03.000Z,85.13
2019-02-04T08:34:03.065Z,84.88
2019-02-04T08:35:03.017Z,84.88
2019-02-04T08:36:02.980Z,84.67
2019-02-04T08:37:02.970Z,84.47
2019-02-04T08:38:02.961Z,84.33
2019-02-04T08:39:02.935Z,83.91
2019-02-04T08:40:02.925Z,83.49
2019-02-04T08:41:02.951Z,83.91
2019-02-04T08:42:02.904Z,83.80
2019-02-04T08:43:02.905Z,83.49
2019-02-04T08:44:02.904Z,84.01
2019-02-04T08:45:02.872Z,83.80
2019-02-04T08:46:02.862Z,83.39
2019-02-04T08:47:02.896Z,82.93
2019-02-04T08:48:02.853Z,82.62
2019-02-04T08:49:02.836Z,83.25
2019-02-04T08:50:02.833Z,82.62
2019-02-04T08:51:02.807Z,82.51
2019-02-04T08:52:02.796Z,82.51
2019-02-04T08:53:02.839Z,82.62
2019-02-04T08:54:02.775Z,82.51
2019-02-04T08:55:02.764Z,82.72
2019-02-04T08:56:02.776Z,81.58
2019-02-04T08:57:02.749Z,81.68
2019-02-04T08:58:02.734Z,81.68
2019-02-04T08:59:02.771Z,80.85
2019-02-04T09:00:02.712Z,81.65
2019-02-04T09:01:02.777Z,81.12
2019-02-04T09:02:02.713Z,80.91
2019-02-04T09:03:02.684Z,80.81
2019-02-04T09:04:02.723Z,81.12
2019-02-04T09:05:02.700Z,80.91
2019-02-04T09:06:02.645Z,81.33
2019-02-04T09:07:02.635Z,81.33
2019-02-04T09:08:02.627Z,81.23
2019-02-04T09:09:02.620Z,81.65
2019-02-04T09:10:02.604Z,81.33
2019-02-04T09:11:02.639Z,81.65
2019-02-04T09:12:02.580Z,82.68
2019-02-04T09:13:02.585Z,82.89
2019-02-04T09:14:02.567Z,82.48
2019-02-04T09:15:02.666Z,82.68
2019-02-04T09:16:02.576Z,82.27
2019-02-04T09:17:02.597Z,81.54
2019-02-04T09:18:02.530Z,81.43
2019-02-04T09:19:02.515Z,81.33
2019-02-04T09:20:09.605Z,81.60
2019-02-04T09:21:03.497Z,81.29
2019-02-04T09:22:02.499Z,81.60
2019-02-04T09:23:02.523Z,81.29
2019-02-04T09:24:02.478Z,81.60
2019-02-04T09:25:02.459Z,81.19
2019-02-04T09:26:02.442Z,80.36
2019-02-04T09:27:02.423Z,79.94
2019-02-04T09:28:02.416Z,80.46
2019-02-04T09:29:02.534Z,80.15
2019-02-04T09:30:02.403Z,79.42
2019-02-04T09:31:02.383Z,80.15
2019-02-04T09:32:02.374Z,79.91
2019-02-04T09:33:02.367Z,79.69
2019-02-04T09:34:02.356Z,80.15
2019-02-04T09:35:02.403Z,78.97
2019-02-04T09:36:02.327Z,79.28
2019-02-04T09:37:02.346Z,78.86
2019-02-04T09:38:02.316Z,78.86
2019-02-04T09:39:02.306Z,78.52
2019-02-04T09:40:02.320Z,78.24
2019-02-04T09:41:02.323Z,78.41
2019-02-04T09:42:02.265Z,78.52
2019-02-04T09:43:02.272Z,78.00
2019-02-04T09:44:02.328Z,77.27
2019-02-04T09:45:02.233Z,77.27
2019-02-04T09:46:02.224Z,77.48
2019-02-04T09:47:02.408Z,77.27
2019-02-04T09:48:02.222Z,77.34
2019-02-04T09:49:02.185Z,76.72
2019-02-04T09:50:02.182Z,76.51
2019-02-04T09:51:02.171Z,76.09
2019-02-04T09:52:02.160Z,75.98
2019-02-04T09:53:02.181Z,75.36
2019-02-04T09:54:02.149Z,75.78
2019-02-04T09:55:02.124Z,75.54
2019-02-04T09:56:02.118Z,76.16
2019-02-04T09:57:02.106Z,75.32
2019-02-04T09:58:02.095Z,75.01
2019-02-04T09:59:02.132Z,73.87
2019-02-04T10:00:02.147Z,73.97
2019-02-04T10:01:04.230Z,73.66
2019-02-04T10:02:02.055Z,73.87
2019-02-04T10:03:02.038Z,73.87
2019-02-04T10:04:02.034Z,74.08
2019-02-04T10:05:02.069Z,75.12
2019-02-04T10:06:02.046Z,73.66
2019-02-04T10:07:01.998Z,73.74
2019-02-04T10:08:01.985Z,73.53
2019-02-04T10:09:01.996Z,73.53
2019-02-04T10:10:01.970Z,74.36
2019-02-04T10:11:02.000Z,74.26
2019-02-04T10:12:01.956Z,73.43
2019-02-04T10:13:01.927Z,73.63
2019-02-04T10:14:01.920Z,73.60
2019-02-04T10:15:01.948Z,73.91
2019-02-04T10:16:01.934Z,74.32
2019-02-04T10:17:01.943Z,75.46
2019-02-04T10:18:01.910Z,74.43
2019-02-04T10:19:01.916Z,73.18
2019-02-04T10:20:01.890Z,73.39
2019-02-04T10:21:01.846Z,74.46
2019-02-04T10:22:01.859Z,74.32
2019-02-04T10:23:01.923Z,74.22
2019-02-04T10:24:01.809Z,73.43
2019-02-04T10:25:01.859Z,74.95
2019-02-04T10:26:01.802Z,74.32
2019-02-04T10:27:01.797Z,72.45
2019-02-04T10:28:01.826Z,74.95
2019-02-04T10:29:01.796Z,74.22
2019-02-04T10:30:01.804Z,75.15
2019-02-04T10:31:01.776Z,73.18
2019-02-04T10:32:01.747Z,73.49
2019-02-04T10:33:01.755Z,73.39
2019-02-04T10:34:01.746Z,74.22
2019-02-04T10:35:01.736Z,72.45
2019-02-04T10:36:01.771Z,71.94
2019-02-04T10:37:01.714Z,72.14
2019-02-04T10:38:01.671Z,72.56
2019-02-04T10:39:01.680Z,71.31
2019-02-04T10:40:01.666Z,71.73
2019-02-04T10:41:01.673Z,73.49
2019-02-04T10:42:01.647Z,73.49
2019-02-04T10:43:01.599Z,71.73
2019-02-04T10:44:01.602Z,72.14
2019-02-04T10:45:01.642Z,72.35
2019-02-04T10:46:04.582Z,72.04
2019-02-04T10:47:01.725Z,71.62
2019-02-04T10:48:01.557Z,74.11
2019-02-04T10:49:01.540Z,72.45
2019-02-04T10:50:01.631Z,72.04
2019-02-04T10:51:01.560Z,72.66
2019-02-04T10:52:01.536Z,72.11
2019-02-04T10:53:01.560Z,72.74
2019-02-04T10:54:01.501Z,71.73
2019-02-04T10:55:01.596Z,71.91
2019-02-04T10:56:01.463Z,72.01
2019-02-04T10:57:01.498Z,70.97
2019-02-04T10:58:01.494Z,71.25
2019-02-04T10:59:01.622Z,71.14
2019-02-04T11:00:01.425Z,72.08
2019-02-04T11:01:01.451Z,72.18
2019-02-04T11:02:01.414Z,72.18
2019-02-04T11:03:01.417Z,71.94
2019-02-04T11:04:01.386Z,71.22
2019-02-04T11:05:01.427Z,71.53
2019-02-04T11:06:01.352Z,72.15
2019-02-04T11:07:01.357Z,70.90
2019-02-04T11:08:01.383Z,71.53
2019-02-04T11:09:01.352Z,69.97
2019-02-04T11:10:01.364Z,70.07
2019-02-04T11:11:01.351Z,70.18
2019-02-04T11:12:01.345Z,71.11
2019-02-04T11:13:01.336Z,70.70
2019-02-04T11:14:01.300Z,70.70
2019-02-04T11:15:01.276Z,71.63
2019-02-04T11:16:01.285Z,71.11
2019-02-04T11:17:01.296Z,71.42
2019-02-04T11:18:01.218Z,70.97
2019-02-04T11:19:01.255Z,70.04
2019-02-04T11:20:01.284Z,69.32
2019-02-04T11:21:01.184Z,69.21
2019-02-04T11:22:01.226Z,69.21
2019-02-04T11:23:01.224Z,68.90
2019-02-04T11:24:01.218Z,68.70
2019-02-04T11:25:01.167Z,67.55
2019-02-04T11:26:01.157Z,66.52
2019-02-04T11:27:01.162Z,66.72
2019-02-04T11:28:01.131Z,67.03
2019-02-04T11:29:01.314Z,68.15
2019-02-04T11:30:01.090Z,68.35
2019-02-04T11:31:01.112Z,67.42
2019-02-04T11:32:01.110Z,68.66
2019-02-04T11:33:01.087Z,67.63
2019-02-04T11:34:01.047Z,67.32
2019-02-04T11:35:01.086Z,67.63
2019-02-04T11:36:01.023Z,67.49
2019-02-04T11:37:01.035Z,67.63
2019-02-04T11:38:01.009Z,66.46
2019-02-04T11:39:01.030Z,66.77
2019-02-04T11:40:01.007Z,65.84
2019-02-04T11:41:01.005Z,66.35
2019-02-04T11:42:01.013Z,65.84
2019-02-04T11:43:00.972Z,66.15
2019-02-04T11:44:00.945Z,65.84
2019-02-04T11:45:00.953Z,65.84
2019-02-04T11:46:00.930Z,65.42
2019-02-04T11:47:00.985Z,66.46
2019-02-04T11:48:01.036Z,65.53
2019-02-04T11:49:00.883Z,65.14
2019-02-04T11:50:00.871Z,66.87
2019-02-04T11:51:09.337Z,65.14
2019-02-04T11:52:01.884Z,66.49
2019-02-04T11:53:00.834Z,66.49
2019-02-04T11:54:00.825Z,63.76
2019-02-04T11:55:00.821Z,64.07
2019-02-04T11:56:00.833Z,65.01
2019-02-04T11:57:00.803Z,65.01
2019-02-04T11:58:00.835Z,65.63
2019-02-04T11:59:00.778Z,65.73
2019-02-04T12:00:00.785Z,64.70
2019-02-04T12:01:00.753Z,64.18
2019-02-04T12:02:00.750Z,63.97
2019-02-04T12:03:00.725Z,63.97
2019-02-04T12:04:00.766Z,63.97
2019-02-04T12:05:00.761Z,65.11
2019-02-04T12:06:00.697Z,64.07
2019-02-04T12:07:00.688Z,64.07
2019-02-04T12:08:00.675Z,64.28
2019-02-04T12:09:00.663Z,64.07
2019-02-04T12:10:00.708Z,63.90
2019-02-04T12:11:00.666Z,63.97
2019-02-04T12:12:00.634Z,65.01
2019-02-04T12:13:00.620Z,63.79
2019-02-04T12:14:00.610Z,64.11
2019-02-04T12:15:00.602Z,64.11
2019-02-04T12:16:00.656Z,63.79
2019-02-04T12:17:00.576Z,64.00
2019-02-04T12:18:00.562Z,63.38
2019-02-04T12:19:00.605Z,63.90
2019-02-04T12:20:00.555Z,62.87
2019-02-04T12:21:00.539Z,62.45
2019-02-04T12:22:02.695Z,63.28
2019-02-04T12:23:00.571Z,63.69
2019-02-04T12:24:00.494Z,62.52
2019-02-04T12:25:00.494Z,62.21
2019-02-04T12:26:00.473Z,62.52
2019-02-04T12:27:00.469Z,62.63
2019-02-04T12:28:00.486Z,62.11
2019-02-04T12:29:00.466Z,62.21
2019-02-04T12:30:00.464Z,61.67
2019-02-04T12:31:00.422Z,62.81
2019-02-04T12:32:00.459Z,63.43
2019-02-04T12:33:00.406Z,61.77
2019-02-04T12:34:00.436Z,61.46
2019-02-04T12:35:00.379Z,61.46
2019-02-04T12:36:02.182Z,60.63
2019-02-04T12:37:00.411Z,60.53
2019-02-04T12:38:00.356Z,61.46
2019-02-04T12:39:00.336Z,63.53
2019-02-04T12:40:00.353Z,61.95
2019-02-04T12:41:00.317Z,62.46
2019-02-04T12:42:00.303Z,62.05
2019-02-04T12:43:00.351Z,59.60
2019-02-04T12:44:00.281Z,60.42
2019-02-04T12:45:00.338Z,61.22
2019-02-04T12:46:00.343Z,60.40
2019-02-04T12:47:00.248Z,61.43
2019-02-04T12:48:00.978Z,60.50
2019-02-04T12:49:00.234Z,60.22
2019-02-04T12:50:00.355Z,60.50
2019-02-04T12:51:00.206Z,60.50
2019-02-04T12:52:00.241Z,60.71